Disclaimer

    

CYCD

LWIS CYCD 170700Z AUTO 26005KT 01/01 A3025=

LWIS CYCD 170600Z AUTO 00000KT 02/02 A3024=

METAR CYCD 170500Z 18003KT 100V190 15SM SCT030 BKN050 03/02 A3023 RMK SC4SC2 LAST STFD OBS/NEXT 171400Z SLP240=

TAF CYCD 162338Z 1700/1705 34005KT P6SM SCT020 SCT040 SCT070 TEMPO 1700/1705 P6SM -SHRA BKN020 BKN040 RMK NXT FCST WILL BE ISSUED AT 171545Z=

CYVR

METAR CYVR 170700Z 28018G23KT 20SM FEW012 04/02 A3022 RMK SC1 SLP235=

METAR CYVR 170600Z 27017KT 20SM FEW020 FEW120 SCT210 04/02 A3021 RMK SC1AC1CI2 SC TR SLP230=

METAR CYVR 170500Z 29018G25KT 20SM FEW028 SCT050 SCT180 04/02 A3019 RMK SC1SC2AC1 SLP226=

TAF CYVR 170538Z 1706/1812 29018G28KT P6SM FEW020 SCT050 TEMPO 1706/1712 P6SM -SHRA SCT020 BKN050
FM171200 30012KT P6SM FEW015 TEMPO 1712/1714 BKN015 BECMG 1712/1714 06006KT
FM171400 06006KT P6SM SCT020 SCT040 TEMPO 1714/1717 BKN020
FM171700 06006KT P6SM FEW020 FEW040 BECMG 1720/1722 29005KT
FM180300 06006KT P6SM FEW040 RMK NXT FCST BY 170900Z=

CYXX

METAR CYXX 170700Z 18004KT 10SM SCT045 BKN180 03/01 A3022 RMK CU3AC3 OCNL -SHRA SLP237=

SPECI CYXX 170635Z 21005KT 10SM -SHRA SCT045 BKN180 03/01 A3022 RMK CU3AC3 SLP235=

METAR CYXX 170600Z 22005KT 10SM SCT026 BKN180 03/02 A3021 RMK SC4AC3 SLP232=

METAR CYXX 170500Z 22002KT 10SM BKN050 BKN070 03/01 A3020 RMK SC6AC1 SLP229=

TAF CYXX 170538Z 1706/1806 VRB03KT P6SM FEW015 BKN050 TEMPO 1706/1710 P6SM -SHRA BKN015 BKN050
FM171000 VRB03KT P6SM SCT012 BKN030 TEMPO 1710/1720 5SM -SHRA BR BKN012 BKN030
FM172000 VRB03KT P6SM SCT020 BKN040 TEMPO 1720/1724 BKN020 RMK NXT FCST BY 171200Z=

Supplemental information

Lower mainland ATIS: 1-877-517-2847

CZBB (Boundary Bay) current winds

Upper winds (Vancouver)

Data fromValid at300060009000
17000017060031213129-083121-15
17000017120031223314-073319-14
17000018000099003014-073114-14

NOTAMs

Ten newest NOTAMs per file () are highlighted.